sensor_id;sensor_type;location;lat;lon;timestamp;P1;durP1;ratioP1;P2;durP2;ratioP2
41201;SDS011;26936;50.524;8.684;2023-12-07T00:02:06;24.80;;;12.97;;
41201;SDS011;26936;50.524;8.684;2023-12-07T00:04:32;30.30;;;13.43;;
41201;SDS011;26936;50.524;8.684;2023-12-07T00:06:57;25.03;;;13.00;;
41201;SDS011;26936;50.524;8.684;2023-12-07T00:09:22;27.90;;;14.20;;
41201;SDS011;26936;50.524;8.684;2023-12-07T00:11:48;27.13;;;13.18;;
41201;SDS011;26936;50.524;8.684;2023-12-07T00:14:13;26.07;;;14.30;;
41201;SDS011;26936;50.524;8.684;2023-12-07T00:16:38;26.30;;;12.95;;
41201;SDS011;26936;50.524;8.684;2023-12-07T00:19:03;24.27;;;13.27;;
41201;SDS011;26936;50.524;8.684;2023-12-07T00:21:29;28.00;;;13.10;;
41201;SDS011;26936;50.524;8.684;2023-12-07T00:23:54;25.40;;;12.57;;
41201;SDS011;26936;50.524;8.684;2023-12-07T00:26:19;25.93;;;13.40;;
41201;SDS011;26936;50.524;8.684;2023-12-07T00:28:44;24.77;;;13.03;;
41201;SDS011;26936;50.524;8.684;2023-12-07T00:31:10;21.77;;;12.45;;
41201;SDS011;26936;50.524;8.684;2023-12-07T00:33:35;25.73;;;14.13;;
41201;SDS011;26936;50.524;8.684;2023-12-07T00:36:01;30.70;;;15.98;;
41201;SDS011;26936;50.524;8.684;2023-12-07T00:38:26;29.23;;;14.93;;
41201;SDS011;26936;50.524;8.684;2023-12-07T00:40:51;26.73;;;14.82;;
41201;SDS011;26936;50.524;8.684;2023-12-07T00:43:16;30.20;;;15.50;;
41201;SDS011;26936;50.524;8.684;2023-12-07T00:45:42;34.35;;;17.33;;
41201;SDS011;26936;50.524;8.684;2023-12-07T00:48:07;32.17;;;15.75;;
41201;SDS011;26936;50.524;8.684;2023-12-07T00:50:32;29.40;;;15.75;;
41201;SDS011;26936;50.524;8.684;2023-12-07T00:52:58;32.17;;;16.40;;
41201;SDS011;26936;50.524;8.684;2023-12-07T00:55:23;29.67;;;15.48;;
41201;SDS011;26936;50.524;8.684;2023-12-07T00:57:48;31.30;;;15.40;;
41201;SDS011;26936;50.524;8.684;2023-12-07T01:00:14;29.40;;;14.90;;
41201;SDS011;26936;50.524;8.684;2023-12-07T01:02:39;33.67;;;16.25;;
41201;SDS011;26936;50.524;8.684;2023-12-07T01:05:05;30.13;;;15.57;;
41201;SDS011;26936;50.524;8.684;2023-12-07T01:07:30;30.35;;;15.75;;
41201;SDS011;26936;50.524;8.684;2023-12-07T01:09:56;32.00;;;15.67;;
41201;SDS011;26936;50.524;8.684;2023-12-07T01:12:21;28.50;;;14.80;;
41201;SDS011;26936;50.524;8.684;2023-12-07T01:14:46;29.70;;;15.70;;
41201;SDS011;26936;50.524;8.684;2023-12-07T01:17:12;31.15;;;16.15;;
41201;SDS011;26936;50.524;8.684;2023-12-07T01:19:37;25.47;;;14.73;;
41201;SDS011;26936;50.524;8.684;2023-12-07T01:22:02;28.50;;;15.10;;
41201;SDS011;26936;50.524;8.684;2023-12-07T01:24:28;29.23;;;14.80;;
41201;SDS011;26936;50.524;8.684;2023-12-07T01:26:54;27.35;;;14.80;;
41201;SDS011;26936;50.524;8.684;2023-12-07T01:29:19;27.70;;;14.93;;
41201;SDS011;26936;50.524;8.684;2023-12-07T01:31:45;24.37;;;13.07;;
41201;SDS011;26936;50.524;8.684;2023-12-07T01:34:10;27.40;;;13.77;;
41201;SDS011;26936;50.524;8.684;2023-12-07T01:36:35;29.48;;;14.45;;
41201;SDS011;26936;50.524;8.684;2023-12-07T01:39:01;25.88;;;14.77;;
41201;SDS011;26936;50.524;8.684;2023-12-07T01:41:26;29.63;;;14.75;;
41201;SDS011;26936;50.524;8.684;2023-12-07T01:43:51;33.28;;;16.42;;
41201;SDS011;26936;50.524;8.684;2023-12-07T01:46:17;30.20;;;15.30;;
41201;SDS011;26936;50.524;8.684;2023-12-07T01:48:43;28.05;;;15.25;;
41201;SDS011;26936;50.524;8.684;2023-12-07T01:51:09;29.73;;;15.48;;
41201;SDS011;26936;50.524;8.684;2023-12-07T01:53:36;30.15;;;15.23;;
41201;SDS011;26936;50.524;8.684;2023-12-07T01:56:04;31.35;;;15.95;;
41201;SDS011;26936;50.524;8.684;2023-12-07T01:58:31;30.17;;;15.38;;
41201;SDS011;26936;50.524;8.684;2023-12-07T02:00:57;28.98;;;14.63;;
41201;SDS011;26936;50.524;8.684;2023-12-07T02:03:22;31.67;;;15.65;;
41201;SDS011;26936;50.524;8.684;2023-12-07T02:05:48;28.48;;;15.43;;
41201;SDS011;26936;50.524;8.684;2023-12-07T02:08:14;31.27;;;15.45;;
41201;SDS011;26936;50.524;8.684;2023-12-07T02:10:39;29.77;;;15.32;;
41201;SDS011;26936;50.524;8.684;2023-12-07T02:13:05;27.73;;;15.18;;
41201;SDS011;26936;50.524;8.684;2023-12-07T02:15:31;27.60;;;14.63;;
41201;SDS011;26936;50.524;8.684;2023-12-07T02:20:43;30.92;;;14.73;;
41201;SDS011;26936;50.524;8.684;2023-12-07T02:23:14;32.58;;;14.95;;
41201;SDS011;26936;50.524;8.684;2023-12-07T02:25:48;29.42;;;14.20;;
41201;SDS011;26936;50.524;8.684;2023-12-07T02:28:16;25.38;;;13.45;;
41201;SDS011;26936;50.524;8.684;2023-12-07T02:30:42;24.60;;;13.93;;
41201;SDS011;26936;50.524;8.684;2023-12-07T02:33:07;27.08;;;14.25;;
41201;SDS011;26936;50.524;8.684;2023-12-07T02:35:36;32.08;;;15.23;;
41201;SDS011;26936;50.524;8.684;2023-12-07T02:38:02;31.10;;;14.57;;
41201;SDS011;26936;50.524;8.684;2023-12-07T02:40:29;26.33;;;13.77;;
41201;SDS011;26936;50.524;8.684;2023-12-07T02:42:55;25.05;;;12.50;;
41201;SDS011;26936;50.524;8.684;2023-12-07T02:45:22;30.88;;;13.38;;
41201;SDS011;26936;50.524;8.684;2023-12-07T02:47:48;29.65;;;14.10;;
41201;SDS011;26936;50.524;8.684;2023-12-07T02:50:13;24.05;;;12.23;;
41201;SDS011;26936;50.524;8.684;2023-12-07T02:52:39;25.38;;;13.10;;
41201;SDS011;26936;50.524;8.684;2023-12-07T02:55:05;24.70;;;12.35;;
41201;SDS011;26936;50.524;8.684;2023-12-07T02:57:31;26.30;;;13.13;;
41201;SDS011;26936;50.524;8.684;2023-12-07T02:59:58;23.88;;;12.30;;
41201;SDS011;26936;50.524;8.684;2023-12-07T03:02:25;30.10;;;14.52;;
41201;SDS011;26936;50.524;8.684;2023-12-07T03:04:50;38.60;;;15.98;;
41201;SDS011;26936;50.524;8.684;2023-12-07T03:07:15;35.47;;;15.70;;
41201;SDS011;26936;50.524;8.684;2023-12-07T03:09:41;30.15;;;14.82;;
41201;SDS011;26936;50.524;8.684;2023-12-07T03:12:07;25.42;;;12.93;;
41201;SDS011;26936;50.524;8.684;2023-12-07T03:14:32;28.10;;;13.63;;
41201;SDS011;26936;50.524;8.684;2023-12-07T03:16:57;24.45;;;12.52;;
41201;SDS011;26936;50.524;8.684;2023-12-07T03:19:23;36.45;;;16.13;;
41201;SDS011;26936;50.524;8.684;2023-12-07T03:21:48;34.57;;;15.73;;
41201;SDS011;26936;50.524;8.684;2023-12-07T03:24:13;32.55;;;16.00;;
41201;SDS011;26936;50.524;8.684;2023-12-07T03:26:39;35.43;;;17.87;;
41201;SDS011;26936;50.524;8.684;2023-12-07T03:29:04;38.65;;;17.25;;
41201;SDS011;26936;50.524;8.684;2023-12-07T03:31:29;41.83;;;17.35;;
41201;SDS011;26936;50.524;8.684;2023-12-07T03:33:55;38.15;;;17.77;;
41201;SDS011;26936;50.524;8.684;2023-12-07T03:36:21;39.28;;;17.17;;
41201;SDS011;26936;50.524;8.684;2023-12-07T03:38:47;33.22;;;16.88;;
41201;SDS011;26936;50.524;8.684;2023-12-07T03:41:13;32.53;;;15.15;;
41201;SDS011;26936;50.524;8.684;2023-12-07T03:43:38;32.17;;;15.45;;
41201;SDS011;26936;50.524;8.684;2023-12-07T03:46:04;28.33;;;14.70;;
41201;SDS011;26936;50.524;8.684;2023-12-07T03:48:30;33.20;;;15.90;;
41201;SDS011;26936;50.524;8.684;2023-12-07T03:50:55;28.90;;;14.45;;
41201;SDS011;26936;50.524;8.684;2023-12-07T03:53:20;30.90;;;14.53;;
41201;SDS011;26936;50.524;8.684;2023-12-07T03:55:46;31.77;;;14.55;;
41201;SDS011;26936;50.524;8.684;2023-12-07T03:58:11;32.67;;;15.10;;
41201;SDS011;26936;50.524;8.684;2023-12-07T04:00:38;28.23;;;15.23;;
41201;SDS011;26936;50.524;8.684;2023-12-07T04:03:03;29.30;;;12.90;;
41201;SDS011;26936;50.524;8.684;2023-12-07T04:05:28;27.70;;;14.25;;
41201;SDS011;26936;50.524;8.684;2023-12-07T04:07:54;28.47;;;14.07;;
41201;SDS011;26936;50.524;8.684;2023-12-07T04:10:19;29.77;;;13.57;;
41201;SDS011;26936;50.524;8.684;2023-12-07T04:12:44;29.25;;;13.77;;
41201;SDS011;26936;50.524;8.684;2023-12-07T04:15:09;28.40;;;14.33;;
41201;SDS011;26936;50.524;8.684;2023-12-07T04:17:35;29.67;;;14.82;;
41201;SDS011;26936;50.524;8.684;2023-12-07T04:20:00;29.98;;;15.07;;
41201;SDS011;26936;50.524;8.684;2023-12-07T04:22:26;28.02;;;14.35;;
41201;SDS011;26936;50.524;8.684;2023-12-07T04:24:51;28.25;;;13.48;;
41201;SDS011;26936;50.524;8.684;2023-12-07T04:27:16;28.73;;;13.70;;
41201;SDS011;26936;50.524;8.684;2023-12-07T04:29:41;30.95;;;13.85;;
41201;SDS011;26936;50.524;8.684;2023-12-07T04:32:07;27.90;;;13.30;;
41201;SDS011;26936;50.524;8.684;2023-12-07T04:34:32;24.85;;;12.32;;
41201;SDS011;26936;50.524;8.684;2023-12-07T04:36:58;26.15;;;13.18;;
41201;SDS011;26936;50.524;8.684;2023-12-07T04:39:23;26.27;;;14.17;;
41201;SDS011;26936;50.524;8.684;2023-12-07T04:41:49;24.90;;;11.93;;
41201;SDS011;26936;50.524;8.684;2023-12-07T04:44:14;28.08;;;13.48;;
41201;SDS011;26936;50.524;8.684;2023-12-07T04:46:40;25.77;;;12.50;;
41201;SDS011;26936;50.524;8.684;2023-12-07T04:49:05;26.38;;;11.85;;
41201;SDS011;26936;50.524;8.684;2023-12-07T04:51:30;22.63;;;11.57;;
41201;SDS011;26936;50.524;8.684;2023-12-07T04:53:56;27.90;;;12.67;;
41201;SDS011;26936;50.524;8.684;2023-12-07T04:56:21;21.93;;;11.43;;
41201;SDS011;26936;50.524;8.684;2023-12-07T04:58:46;21.30;;;11.07;;
41201;SDS011;26936;50.524;8.684;2023-12-07T05:01:11;24.15;;;12.18;;
41201;SDS011;26936;50.524;8.684;2023-12-07T05:03:37;23.52;;;12.57;;
41201;SDS011;26936;50.524;8.684;2023-12-07T05:06:02;25.77;;;13.25;;
41201;SDS011;26936;50.524;8.684;2023-12-07T05:08:28;27.42;;;12.63;;
41201;SDS011;26936;50.524;8.684;2023-12-07T05:10:53;27.40;;;12.07;;
41201;SDS011;26936;50.524;8.684;2023-12-07T05:13:18;25.13;;;12.57;;
41201;SDS011;26936;50.524;8.684;2023-12-07T05:15:44;29.60;;;13.63;;
41201;SDS011;26936;50.524;8.684;2023-12-07T05:18:11;31.25;;;13.93;;
41201;SDS011;26936;50.524;8.684;2023-12-07T05:20:36;28.35;;;13.95;;
41201;SDS011;26936;50.524;8.684;2023-12-07T05:23:04;32.85;;;14.85;;
41201;SDS011;26936;50.524;8.684;2023-12-07T05:25:29;30.83;;;14.25;;
41201;SDS011;26936;50.524;8.684;2023-12-07T05:27:54;27.58;;;13.80;;
41201;SDS011;26936;50.524;8.684;2023-12-07T05:30:20;24.30;;;12.07;;
41201;SDS011;26936;50.524;8.684;2023-12-07T05:32:45;29.10;;;13.45;;
41201;SDS011;26936;50.524;8.684;2023-12-07T05:35:11;25.67;;;13.38;;
41201;SDS011;26936;50.524;8.684;2023-12-07T05:37:36;27.17;;;13.38;;
41201;SDS011;26936;50.524;8.684;2023-12-07T05:40:02;27.83;;;14.18;;
41201;SDS011;26936;50.524;8.684;2023-12-07T05:42:27;27.08;;;13.43;;
41201;SDS011;26936;50.524;8.684;2023-12-07T05:44:52;27.25;;;13.70;;
41201;SDS011;26936;50.524;8.684;2023-12-07T05:47:18;28.93;;;13.43;;
41201;SDS011;26936;50.524;8.684;2023-12-07T05:49:43;30.93;;;14.67;;
41201;SDS011;26936;50.524;8.684;2023-12-07T05:52:08;38.85;;;16.05;;
41201;SDS011;26936;50.524;8.684;2023-12-07T05:54:33;33.93;;;16.47;;
41201;SDS011;26936;50.524;8.684;2023-12-07T05:56:59;33.95;;;15.13;;
41201;SDS011;26936;50.524;8.684;2023-12-07T05:59:24;31.95;;;15.02;;
41201;SDS011;26936;50.524;8.684;2023-12-07T06:01:53;35.40;;;15.10;;
41201;SDS011;26936;50.524;8.684;2023-12-07T06:04:18;34.72;;;14.45;;
41201;SDS011;26936;50.524;8.684;2023-12-07T06:06:44;30.52;;;14.00;;
41201;SDS011;26936;50.524;8.684;2023-12-07T06:09:10;33.30;;;15.20;;
41201;SDS011;26936;50.524;8.684;2023-12-07T06:11:35;27.73;;;14.48;;
41201;SDS011;26936;50.524;8.684;2023-12-07T06:14:01;29.55;;;13.35;;
41201;SDS011;26936;50.524;8.684;2023-12-07T06:16:26;27.45;;;13.00;;
41201;SDS011;26936;50.524;8.684;2023-12-07T06:18:52;36.37;;;15.23;;
41201;SDS011;26936;50.524;8.684;2023-12-07T06:21:17;41.92;;;17.20;;
41201;SDS011;26936;50.524;8.684;2023-12-07T06:23:43;31.73;;;15.70;;
41201;SDS011;26936;50.524;8.684;2023-12-07T06:26:11;42.38;;;16.02;;
41201;SDS011;26936;50.524;8.684;2023-12-07T06:28:36;37.33;;;16.52;;
41201;SDS011;26936;50.524;8.684;2023-12-07T06:31:05;36.53;;;17.08;;
41201;SDS011;26936;50.524;8.684;2023-12-07T06:33:33;136.25;;;21.85;;
41201;SDS011;26936;50.524;8.684;2023-12-07T06:35:59;73.65;;;18.83;;
41201;SDS011;26936;50.524;8.684;2023-12-07T06:38:25;42.67;;;17.67;;
41201;SDS011;26936;50.524;8.684;2023-12-07T06:40:50;41.60;;;17.50;;
41201;SDS011;26936;50.524;8.684;2023-12-07T06:43:16;195.83;;;24.37;;
41201;SDS011;26936;50.524;8.684;2023-12-07T06:45:41;160.68;;;24.13;;
41201;SDS011;26936;50.524;8.684;2023-12-07T06:48:06;82.90;;;20.25;;
41201;SDS011;26936;50.524;8.684;2023-12-07T06:50:32;80.93;;;21.55;;
41201;SDS011;26936;50.524;8.684;2023-12-07T06:52:57;80.10;;;21.20;;
41201;SDS011;26936;50.524;8.684;2023-12-07T06:55:22;67.73;;;21.23;;
41201;SDS011;26936;50.524;8.684;2023-12-07T06:57:48;44.67;;;19.35;;
41201;SDS011;26936;50.524;8.684;2023-12-07T07:00:13;46.17;;;19.90;;
41201;SDS011;26936;50.524;8.684;2023-12-07T07:02:38;55.17;;;19.85;;
41201;SDS011;26936;50.524;8.684;2023-12-07T07:05:04;57.05;;;20.30;;
41201;SDS011;26936;50.524;8.684;2023-12-07T07:07:30;48.28;;;19.02;;
41201;SDS011;26936;50.524;8.684;2023-12-07T07:09:56;46.80;;;18.10;;
41201;SDS011;26936;50.524;8.684;2023-12-07T07:12:22;49.38;;;18.77;;
41201;SDS011;26936;50.524;8.684;2023-12-07T07:14:48;52.97;;;19.13;;
41201;SDS011;26936;50.524;8.684;2023-12-07T07:17:13;48.10;;;19.17;;
41201;SDS011;26936;50.524;8.684;2023-12-07T07:19:38;48.40;;;17.48;;
41201;SDS011;26936;50.524;8.684;2023-12-07T07:22:04;57.63;;;19.25;;
41201;SDS011;26936;50.524;8.684;2023-12-07T07:24:29;101.05;;;20.25;;
41201;SDS011;26936;50.524;8.684;2023-12-07T07:26:55;67.63;;;19.25;;
41201;SDS011;26936;50.524;8.684;2023-12-07T07:29:20;61.77;;;18.10;;
41201;SDS011;26936;50.524;8.684;2023-12-07T07:31:45;57.67;;;16.23;;
41201;SDS011;26936;50.524;8.684;2023-12-07T07:34:10;50.33;;;16.45;;
41201;SDS011;26936;50.524;8.684;2023-12-07T07:36:36;38.72;;;15.85;;
41201;SDS011;26936;50.524;8.684;2023-12-07T07:39:01;46.45;;;15.57;;
41201;SDS011;26936;50.524;8.684;2023-12-07T07:41:26;46.28;;;16.17;;
41201;SDS011;26936;50.524;8.684;2023-12-07T07:43:52;44.78;;;14.85;;
41201;SDS011;26936;50.524;8.684;2023-12-07T07:46:17;47.08;;;16.92;;
41201;SDS011;26936;50.524;8.684;2023-12-07T07:48:42;66.60;;;16.40;;
41201;SDS011;26936;50.524;8.684;2023-12-07T07:51:07;103.23;;;17.70;;
41201;SDS011;26936;50.524;8.684;2023-12-07T07:53:33;76.10;;;16.85;;
41201;SDS011;26936;50.524;8.684;2023-12-07T07:55:58;48.27;;;16.97;;
41201;SDS011;26936;50.524;8.684;2023-12-07T07:58:23;49.80;;;16.63;;
41201;SDS011;26936;50.524;8.684;2023-12-07T08:00:48;102.00;;;17.55;;
41201;SDS011;26936;50.524;8.684;2023-12-07T08:03:14;45.67;;;15.70;;
41201;SDS011;26936;50.524;8.684;2023-12-07T08:05:39;55.13;;;15.97;;
41201;SDS011;26936;50.524;8.684;2023-12-07T08:08:04;84.80;;;18.57;;
41201;SDS011;26936;50.524;8.684;2023-12-07T08:10:30;69.95;;;18.05;;
41201;SDS011;26936;50.524;8.684;2023-12-07T08:12:55;43.20;;;17.47;;
41201;SDS011;26936;50.524;8.684;2023-12-07T08:15:20;69.90;;;18.53;;
41201;SDS011;26936;50.524;8.684;2023-12-07T08:17:46;47.40;;;17.52;;
41201;SDS011;26936;50.524;8.684;2023-12-07T08:20:12;51.50;;;19.00;;
41201;SDS011;26936;50.524;8.684;2023-12-07T08:22:38;77.10;;;18.80;;
41201;SDS011;26936;50.524;8.684;2023-12-07T08:25:04;42.50;;;17.88;;
41201;SDS011;26936;50.524;8.684;2023-12-07T08:27:33;40.70;;;17.00;;
41201;SDS011;26936;50.524;8.684;2023-12-07T08:29:59;40.83;;;15.65;;
41201;SDS011;26936;50.524;8.684;2023-12-07T08:32:25;42.25;;;16.85;;
41201;SDS011;26936;50.524;8.684;2023-12-07T08:34:51;35.15;;;16.75;;
41201;SDS011;26936;50.524;8.684;2023-12-07T08:37:17;37.28;;;16.48;;
41201;SDS011;26936;50.524;8.684;2023-12-07T08:39:42;52.53;;;17.40;;
41201;SDS011;26936;50.524;8.684;2023-12-07T08:42:07;56.63;;;17.98;;
41201;SDS011;26936;50.524;8.684;2023-12-07T08:44:33;34.50;;;16.85;;
41201;SDS011;26936;50.524;8.684;2023-12-07T08:46:58;36.60;;;16.13;;
41201;SDS011;26936;50.524;8.684;2023-12-07T08:49:24;33.95;;;16.05;;
41201;SDS011;26936;50.524;8.684;2023-12-07T08:51:49;39.60;;;16.10;;
41201;SDS011;26936;50.524;8.684;2023-12-07T08:54:14;53.42;;;16.27;;
41201;SDS011;26936;50.524;8.684;2023-12-07T08:56:39;59.83;;;16.00;;
41201;SDS011;26936;50.524;8.684;2023-12-07T08:59:08;34.83;;;14.80;;
41201;SDS011;26936;50.524;8.684;2023-12-07T09:01:33;74.57;;;16.37;;
41201;SDS011;26936;50.524;8.684;2023-12-07T09:03:59;44.38;;;15.40;;
41201;SDS011;26936;50.524;8.684;2023-12-07T09:06:25;54.47;;;16.58;;
41201;SDS011;26936;50.524;8.684;2023-12-07T09:08:50;57.63;;;14.95;;
41201;SDS011;26936;50.524;8.684;2023-12-07T09:11:15;50.33;;;15.50;;
41201;SDS011;26936;50.524;8.684;2023-12-07T09:13:41;47.08;;;15.35;;
41201;SDS011;26936;50.524;8.684;2023-12-07T09:16:06;34.78;;;15.05;;
41201;SDS011;26936;50.524;8.684;2023-12-07T09:18:33;34.40;;;15.80;;
41201;SDS011;26936;50.524;8.684;2023-12-07T09:20:59;45.67;;;15.82;;
41201;SDS011;26936;50.524;8.684;2023-12-07T09:23:25;50.72;;;16.27;;
41201;SDS011;26936;50.524;8.684;2023-12-07T09:25:50;57.40;;;16.45;;
41201;SDS011;26936;50.524;8.684;2023-12-07T09:28:16;66.00;;;17.70;;
41201;SDS011;26936;50.524;8.684;2023-12-07T09:30:41;44.33;;;18.02;;
41201;SDS011;26936;50.524;8.684;2023-12-07T09:33:07;105.37;;;17.60;;
41201;SDS011;26936;50.524;8.684;2023-12-07T09:35:32;51.90;;;16.25;;
41201;SDS011;26936;50.524;8.684;2023-12-07T09:37:59;41.10;;;16.58;;
41201;SDS011;26936;50.524;8.684;2023-12-07T09:40:24;57.42;;;17.58;;
41201;SDS011;26936;50.524;8.684;2023-12-07T09:42:50;46.72;;;17.85;;
41201;SDS011;26936;50.524;8.684;2023-12-07T09:45:17;51.63;;;17.65;;
41201;SDS011;26936;50.524;8.684;2023-12-07T09:47:46;66.55;;;17.67;;
41201;SDS011;26936;50.524;8.684;2023-12-07T09:50:13;49.63;;;18.08;;
41201;SDS011;26936;50.524;8.684;2023-12-07T09:52:41;53.55;;;18.40;;
41201;SDS011;26936;50.524;8.684;2023-12-07T09:55:07;56.65;;;17.85;;
41201;SDS011;26936;50.524;8.684;2023-12-07T09:57:33;56.22;;;19.45;;
41201;SDS011;26936;50.524;8.684;2023-12-07T09:59:59;41.55;;;15.95;;
41201;SDS011;26936;50.524;8.684;2023-12-07T10:02:24;40.33;;;17.65;;
41201;SDS011;26936;50.524;8.684;2023-12-07T10:05:05;50.80;;;17.30;;
41201;SDS011;26936;50.524;8.684;2023-12-07T10:07:32;39.22;;;15.73;;
41201;SDS011;26936;50.524;8.684;2023-12-07T10:09:59;43.58;;;17.02;;
41201;SDS011;26936;50.524;8.684;2023-12-07T10:12:25;43.75;;;17.05;;
41201;SDS011;26936;50.524;8.684;2023-12-07T10:14:50;52.25;;;17.42;;
41201;SDS011;26936;50.524;8.684;2023-12-07T10:17:15;49.57;;;17.33;;
41201;SDS011;26936;50.524;8.684;2023-12-07T10:19:40;49.17;;;17.53;;
41201;SDS011;26936;50.524;8.684;2023-12-07T10:22:12;43.47;;;17.93;;
41201;SDS011;26936;50.524;8.684;2023-12-07T10:24:40;40.05;;;16.63;;
41201;SDS011;26936;50.524;8.684;2023-12-07T10:27:05;39.63;;;17.33;;
41201;SDS011;26936;50.524;8.684;2023-12-07T10:29:34;46.05;;;16.92;;
41201;SDS011;26936;50.524;8.684;2023-12-07T10:32:02;40.72;;;16.88;;
41201;SDS011;26936;50.524;8.684;2023-12-07T10:34:29;44.17;;;17.85;;
41201;SDS011;26936;50.524;8.684;2023-12-07T10:36:55;47.00;;;17.50;;
41201;SDS011;26936;50.524;8.684;2023-12-07T10:39:22;41.25;;;18.58;;
41201;SDS011;26936;50.524;8.684;2023-12-07T10:41:49;44.00;;;18.85;;
41201;SDS011;26936;50.524;8.684;2023-12-07T10:44:19;45.22;;;17.95;;
41201;SDS011;26936;50.524;8.684;2023-12-07T10:46:47;42.13;;;17.80;;
41201;SDS011;26936;50.524;8.684;2023-12-07T10:49:15;43.55;;;16.85;;
41201;SDS011;26936;50.524;8.684;2023-12-07T10:54:21;45.22;;;19.45;;
41201;SDS011;26936;50.524;8.684;2023-12-07T10:56:48;48.70;;;18.42;;
41201;SDS011;26936;50.524;8.684;2023-12-07T10:59:17;42.10;;;18.02;;
41201;SDS011;26936;50.524;8.684;2023-12-07T11:01:43;41.42;;;17.60;;
41201;SDS011;26936;50.524;8.684;2023-12-07T11:04:11;41.22;;;17.80;;
41201;SDS011;26936;50.524;8.684;2023-12-07T11:06:37;44.35;;;17.90;;
41201;SDS011;26936;50.524;8.684;2023-12-07T11:09:06;42.05;;;18.73;;
41201;SDS011;26936;50.524;8.684;2023-12-07T11:11:48;49.22;;;19.17;;
41201;SDS011;26936;50.524;8.684;2023-12-07T11:14:18;43.22;;;17.83;;
41201;SDS011;26936;50.524;8.684;2023-12-07T11:16:47;42.45;;;18.13;;
41201;SDS011;26936;50.524;8.684;2023-12-07T11:22:09;41.78;;;18.33;;
41201;SDS011;26936;50.524;8.684;2023-12-07T11:24:36;45.08;;;20.60;;
41201;SDS011;26936;50.524;8.684;2023-12-07T11:27:02;49.53;;;19.73;;
41201;SDS011;26936;50.524;8.684;2023-12-07T11:29:28;44.35;;;18.77;;
41201;SDS011;26936;50.524;8.684;2023-12-07T11:32:04;41.97;;;18.20;;
41201;SDS011;26936;50.524;8.684;2023-12-07T11:34:36;46.00;;;19.25;;
41201;SDS011;26936;50.524;8.684;2023-12-07T11:37:03;42.20;;;18.33;;
41201;SDS011;26936;50.524;8.684;2023-12-07T11:39:31;44.85;;;17.98;;
41201;SDS011;26936;50.524;8.684;2023-12-07T11:42:06;40.63;;;17.58;;
41201;SDS011;26936;50.524;8.684;2023-12-07T11:44:40;43.05;;;17.27;;
41201;SDS011;26936;50.524;8.684;2023-12-07T11:47:06;41.22;;;17.75;;
41201;SDS011;26936;50.524;8.684;2023-12-07T11:49:32;43.83;;;17.70;;
41201;SDS011;26936;50.524;8.684;2023-12-07T11:51:58;42.65;;;17.77;;
41201;SDS011;26936;50.524;8.684;2023-12-07T11:54:24;45.60;;;19.08;;
41201;SDS011;26936;50.524;8.684;2023-12-07T11:56:54;41.53;;;18.55;;
41201;SDS011;26936;50.524;8.684;2023-12-07T11:59:20;48.25;;;18.75;;
41201;SDS011;26936;50.524;8.684;2023-12-07T12:01:46;43.17;;;18.90;;
41201;SDS011;26936;50.524;8.684;2023-12-07T12:04:12;45.13;;;19.73;;
41201;SDS011;26936;50.524;8.684;2023-12-07T12:06:38;48.08;;;19.80;;
41201;SDS011;26936;50.524;8.684;2023-12-07T12:09:03;47.97;;;18.43;;
41201;SDS011;26936;50.524;8.684;2023-12-07T12:11:28;43.65;;;17.17;;
41201;SDS011;26936;50.524;8.684;2023-12-07T12:13:54;41.78;;;18.10;;
41201;SDS011;26936;50.524;8.684;2023-12-07T12:16:20;38.67;;;17.02;;
41201;SDS011;26936;50.524;8.684;2023-12-07T12:18:45;41.28;;;17.27;;
41201;SDS011;26936;50.524;8.684;2023-12-07T12:21:11;43.13;;;17.70;;
41201;SDS011;26936;50.524;8.684;2023-12-07T12:23:36;46.10;;;18.33;;
41201;SDS011;26936;50.524;8.684;2023-12-07T12:26:02;39.33;;;17.33;;
41201;SDS011;26936;50.524;8.684;2023-12-07T12:28:28;45.67;;;17.33;;
41201;SDS011;26936;50.524;8.684;2023-12-07T12:30:54;42.22;;;17.63;;
41201;SDS011;26936;50.524;8.684;2023-12-07T12:33:20;45.65;;;16.85;;
41201;SDS011;26936;50.524;8.684;2023-12-07T12:35:45;45.92;;;17.40;;
41201;SDS011;26936;50.524;8.684;2023-12-07T12:38:11;44.38;;;18.40;;
41201;SDS011;26936;50.524;8.684;2023-12-07T12:40:37;48.65;;;19.35;;
41201;SDS011;26936;50.524;8.684;2023-12-07T12:43:03;45.90;;;18.35;;
41201;SDS011;26936;50.524;8.684;2023-12-07T12:45:29;49.92;;;17.85;;
41201;SDS011;26936;50.524;8.684;2023-12-07T12:47:55;48.72;;;18.67;;
41201;SDS011;26936;50.524;8.684;2023-12-07T12:53:03;46.28;;;18.05;;
41201;SDS011;26936;50.524;8.684;2023-12-07T12:55:35;46.40;;;16.70;;
41201;SDS011;26936;50.524;8.684;2023-12-07T12:58:08;44.15;;;16.05;;
41201;SDS011;26936;50.524;8.684;2023-12-07T13:00:35;40.58;;;15.70;;
41201;SDS011;26936;50.524;8.684;2023-12-07T13:03:04;40.53;;;16.00;;
41201;SDS011;26936;50.524;8.684;2023-12-07T13:05:30;40.83;;;15.60;;
41201;SDS011;26936;50.524;8.684;2023-12-07T13:07:57;42.67;;;16.88;;
41201;SDS011;26936;50.524;8.684;2023-12-07T13:10:23;39.50;;;16.17;;
41201;SDS011;26936;50.524;8.684;2023-12-07T13:12:49;38.08;;;15.13;;
41201;SDS011;26936;50.524;8.684;2023-12-07T13:15:14;38.53;;;15.83;;
41201;SDS011;26936;50.524;8.684;2023-12-07T13:17:40;38.20;;;15.35;;
41201;SDS011;26936;50.524;8.684;2023-12-07T13:20:06;33.78;;;14.57;;
41201;SDS011;26936;50.524;8.684;2023-12-07T13:22:41;32.20;;;14.82;;
41201;SDS011;26936;50.524;8.684;2023-12-07T13:25:08;36.53;;;15.68;;
41201;SDS011;26936;50.524;8.684;2023-12-07T13:27:34;30.92;;;13.88;;
41201;SDS011;26936;50.524;8.684;2023-12-07T13:30:00;32.53;;;13.52;;
41201;SDS011;26936;50.524;8.684;2023-12-07T13:32:30;39.35;;;15.15;;
41201;SDS011;26936;50.524;8.684;2023-12-07T13:34:55;37.28;;;15.02;;
41201;SDS011;26936;50.524;8.684;2023-12-07T13:37:20;35.80;;;15.40;;
41201;SDS011;26936;50.524;8.684;2023-12-07T13:39:46;34.53;;;14.90;;
41201;SDS011;26936;50.524;8.684;2023-12-07T13:42:17;37.00;;;15.10;;
41201;SDS011;26936;50.524;8.684;2023-12-07T13:44:43;41.08;;;16.70;;
41201;SDS011;26936;50.524;8.684;2023-12-07T13:47:08;38.67;;;15.25;;
41201;SDS011;26936;50.524;8.684;2023-12-07T13:49:34;36.45;;;15.05;;
41201;SDS011;26936;50.524;8.684;2023-12-07T13:52:02;36.95;;;14.50;;
41201;SDS011;26936;50.524;8.684;2023-12-07T13:54:28;37.88;;;14.75;;
41201;SDS011;26936;50.524;8.684;2023-12-07T13:56:53;35.28;;;14.13;;
41201;SDS011;26936;50.524;8.684;2023-12-07T13:59:18;30.40;;;13.53;;
41201;SDS011;26936;50.524;8.684;2023-12-07T14:01:43;32.35;;;14.18;;
41201;SDS011;26936;50.524;8.684;2023-12-07T14:04:09;38.10;;;15.13;;
41201;SDS011;26936;50.524;8.684;2023-12-07T14:06:34;32.23;;;13.40;;
41201;SDS011;26936;50.524;8.684;2023-12-07T14:09:00;32.45;;;13.82;;
41201;SDS011;26936;50.524;8.684;2023-12-07T14:11:26;35.85;;;13.48;;
41201;SDS011;26936;50.524;8.684;2023-12-07T14:13:51;29.80;;;13.15;;
41201;SDS011;26936;50.524;8.684;2023-12-07T14:16:19;30.83;;;14.25;;
41201;SDS011;26936;50.524;8.684;2023-12-07T14:18:45;32.80;;;13.93;;
41201;SDS011;26936;50.524;8.684;2023-12-07T14:21:11;38.38;;;13.38;;
41201;SDS011;26936;50.524;8.684;2023-12-07T14:23:36;35.00;;;14.45;;
41201;SDS011;26936;50.524;8.684;2023-12-07T14:26:02;39.13;;;15.40;;